createdAt,value
2019-04-20T00:01:42.924Z,19.00
2019-04-20T00:04:19.441Z,19.17
2019-04-20T00:06:48.572Z,21.37
2019-04-20T00:09:21.323Z,19.75
2019-04-20T00:12:00.106Z,20.17
2019-04-20T00:14:26.282Z,18.52
2019-04-20T00:16:52.782Z,19.45
2019-04-20T00:19:32.207Z,19.35
2019-04-20T00:22:03.598Z,18.77
2019-04-20T00:24:39.330Z,18.85
2019-04-20T00:27:31.402Z,19.32
2019-04-20T00:29:58.728Z,20.25
2019-04-20T00:32:29.435Z,18.98
2019-04-20T00:34:48.933Z,18.27
2019-04-20T00:37:19.321Z,18.77
2019-04-20T00:40:09.884Z,19.00
2019-04-20T00:42:45.915Z,17.85
2019-04-20T00:45:19.138Z,17.98
2019-04-20T00:47:51.182Z,18.42
2019-04-20T00:50:34.193Z,18.23
2019-04-20T00:52:59.086Z,18.07
2019-04-20T00:55:20.905Z,16.67
2019-04-20T00:57:57.025Z,17.80
2019-04-20T01:00:42.498Z,18.17
2019-04-20T01:03:10.162Z,15.90
2019-04-20T01:05:59.677Z,17.07
2019-04-20T01:08:27.459Z,18.30
2019-04-20T01:10:59.357Z,16.93
2019-04-20T01:13:30.253Z,18.42
2019-04-20T01:16:08.467Z,17.00
2019-04-20T01:18:33.469Z,17.42
2019-04-20T01:21:06.559Z,17.07
2019-04-20T01:23:43.772Z,16.57
2019-04-20T01:26:11.472Z,18.25
2019-04-20T01:28:57.713Z,18.65
2019-04-20T01:31:21.914Z,18.77
2019-04-20T01:33:56.526Z,19.75
2019-04-20T01:36:36.957Z,19.17
2019-04-20T01:39:05.680Z,18.40
2019-04-20T01:41:20.332Z,17.98
2019-04-20T01:43:50.643Z,18.20
2019-04-20T01:46:24.816Z,19.73
2019-04-20T01:48:54.852Z,19.20
2019-04-20T01:51:28.586Z,16.65
2019-04-20T01:54:22.717Z,17.57
2019-04-20T01:56:47.628Z,18.30
2019-04-20T01:59:39.978Z,16.50
2019-04-20T02:02:23.218Z,17.20
2019-04-20T02:05:16.860Z,18.03
2019-04-20T02:07:48.562Z,17.82
2019-04-20T02:10:19.987Z,16.20
2019-04-20T02:12:55.637Z,17.43
2019-04-20T02:15:31.137Z,16.67
2019-04-20T02:18:08.849Z,16.52
2019-04-20T02:20:45.052Z,17.37
2019-04-20T02:23:10.735Z,16.80
2019-04-20T02:25:31.032Z,16.37
2019-04-20T02:28:18.958Z,16.37
2019-04-20T02:31:15.955Z,16.00
2019-04-20T02:33:42.784Z,15.17
2019-04-20T02:44:36.465Z,15.23
2019-04-20T02:52:04.554Z,14.85
2019-04-20T02:54:52.958Z,15.60
2019-04-20T02:57:14.342Z,14.58
2019-04-20T03:01:59.386Z,14.43
2019-04-20T03:04:25.824Z,15.25
2019-04-20T03:07:00.992Z,14.73
2019-04-20T03:09:36.487Z,15.35
2019-04-20T03:12:21.633Z,14.68
2019-04-20T03:14:35.283Z,15.38
2019-04-20T03:17:15.327Z,15.93
2019-04-20T03:19:41.462Z,15.67
2019-04-20T03:22:24.502Z,14.17
2019-04-20T03:24:56.572Z,15.13
2019-04-20T03:27:29.622Z,14.67
2019-04-20T03:30:40.247Z,13.17
2019-04-20T03:35:43.136Z,14.20
2019-04-20T03:38:10.714Z,13.90
2019-04-20T03:40:50.656Z,13.77
2019-04-20T03:43:09.873Z,14.63
2019-04-20T03:45:47.542Z,14.43
2019-04-20T03:48:29.497Z,13.23
2019-04-20T03:51:02.271Z,14.70
